Time;durP1;ratioP1;P1;durP2;ratioP2;P2;SDS_P1;SDS_P2;PMS_P1;PMS_P2;Temp;Humidity;BMP_temperature;BMP_pressure;BME280_temperature;BME280_humidity;BME280_pressure;Samples;Min_cycle;Max_cycle;Signal;HPM_P1;HPM_P2
2023/11/06 00:00:31;;;;;;;1.15;0.90;;;7.40;99.90;;;;;;4974337;28;20214;-70
2023/11/06 00:02:58;;;;;;;3.35;1.30;;;7.50;99.90;;;;;;4974290;28;20227;-70
2023/11/06 00:05:25;;;;;;;1.33;0.90;;;7.50;99.90;;;;;;4973960;28;20210;-71
2023/11/06 00:07:52;;;;;;;1.15;0.90;;;7.50;99.90;;;;;;4974220;28;20202;-70
2023/11/06 00:12:51;;;;;;;1.10;1.00;;;7.60;99.90;;;;;;5012498;23;20246;-93
2023/11/06 04:35:01;;;;;;;1.58;0.95;;;7.60;99.90;;;;;;4986646;23;20794;-69
2023/11/06 04:37:28;;;;;;;2.80;1.00;;;7.60;99.90;;;;;;4972832;28;20211;-69
2023/11/06 04:39:55;;;;;;;1.10;0.90;;;7.50;99.90;;;;;;4972723;28;20640;-69
2023/11/06 04:42:22;;;;;;;1.70;0.80;;;7.50;99.90;;;;;;4972539;28;20232;-68
2023/11/06 04:44:50;;;;;;;1.33;0.80;;;7.50;99.90;;;;;;4972522;28;20365;-68
2023/11/06 04:47:16;;;;;;;0.77;0.70;;;7.50;99.90;;;;;;4972233;28;20215;-69
2023/11/06 04:49:45;;;;;;;1.00;0.90;;;7.50;99.90;;;;;;4972312;28;20218;-69
2023/11/06 04:52:11;;;;;;;1.50;1.00;;;7.50;99.90;;;;;;4972739;28;20228;-69
2023/11/06 04:54:42;;;;;;;1.60;1.50;;;7.40;99.90;;;;;;4972552;28;20225;-68
2023/11/06 04:57:09;;;;;;;1.80;1.00;;;7.40;99.90;;;;;;4972503;28;20235;-69
2023/11/06 04:59:35;;;;;;;1.88;1.00;;;7.40;99.90;;;;;;4972310;28;20239;-69
2023/11/06 05:02:02;;;;;;;0.90;0.80;;;7.40;99.90;;;;;;4972200;28;20238;-70
2023/11/06 05:04:30;;;;;;;1.02;0.90;;;7.30;99.90;;;;;;4972446;28;20213;-69
2023/11/06 05:06:58;;;;;;;6.05;1.10;;;7.30;99.90;;;;;;4971585;28;20747;-69
2023/11/06 05:09:25;;;;;;;1.00;0.90;;;7.30;99.90;;;;;;4972390;28;20217;-69
2023/11/06 05:11:53;;;;;;;1.00;0.80;;;7.30;99.90;;;;;;4972290;28;20715;-69
2023/11/06 05:14:20;;;;;;;1.80;1.20;;;7.30;99.90;;;;;;4972338;28;20225;-69
2023/11/06 05:16:47;;;;;;;0.93;0.80;;;7.30;99.90;;;;;;4969410;28;20210;-69
2023/11/06 05:19:14;;;;;;;1.05;0.95;;;7.30;99.90;;;;;;4972183;28;20313;-69
2023/11/06 05:21:40;;;;;;;0.95;0.85;;;7.30;99.90;;;;;;4972077;28;20809;-68
2023/11/06 05:24:09;;;;;;;1.10;1.00;;;7.30;99.90;;;;;;4971994;28;20226;-69
2023/11/06 05:26:37;;;;;;;1.00;0.77;;;7.40;99.90;;;;;;4971553;28;20271;-68
2023/11/06 05:29:04;;;;;;;1.33;1.00;;;7.40;99.90;;;;;;4971559;28;20212;-69
2023/11/06 05:31:31;;;;;;;2.95;1.20;;;7.50;99.90;;;;;;4972444;28;20322;-68
2023/11/06 05:33:58;;;;;;;1.45;0.90;;;7.50;99.90;;;;;;4971731;28;20243;-68
2023/11/06 05:36:25;;;;;;;0.93;0.80;;;7.50;99.90;;;;;;4972036;28;20286;-69
2023/11/06 05:38:51;;;;;;;1.15;1.00;;;7.50;99.90;;;;;;4972135;28;20203;-69
2023/11/06 05:41:20;;;;;;;2.10;0.93;;;7.50;99.90;;;;;;4972294;28;20244;-69
2023/11/06 05:43:49;;;;;;;1.00;0.90;;;7.50;99.90;;;;;;4971954;28;20753;-68
2023/11/06 05:46:16;;;;;;;4.00;1.27;;;7.50;99.90;;;;;;4972103;28;20211;-68
2023/11/06 05:48:43;;;;;;;1.10;0.88;;;7.50;99.90;;;;;;4971382;28;20215;-68
2023/11/06 05:51:09;;;;;;;1.33;0.90;;;7.50;99.90;;;;;;4972366;28;20234;-69
2023/11/06 05:53:36;;;;;;;0.80;0.80;;;7.50;99.90;;;;;;4972019;28;20203;-68
2023/11/06 05:56:03;;;;;;;1.33;0.90;;;7.50;99.90;;;;;;4971835;28;20214;-68
2023/11/06 05:58:32;;;;;;;1.10;0.90;;;7.50;99.90;;;;;;4971887;28;20628;-69
2023/11/06 06:01:00;;;;;;;1.10;0.75;;;7.50;99.90;;;;;;4971873;28;20668;-69
2023/11/06 06:03:27;;;;;;;2.05;1.30;;;7.50;99.90;;;;;;4972005;28;20320;-68
2023/11/06 06:05:54;;;;;;;1.65;0.80;;;7.50;99.90;;;;;;4971638;28;20225;-68
2023/11/06 06:08:20;;;;;;;2.00;0.82;;;7.50;99.90;;;;;;4971674;28;20217;-68
2023/11/06 06:10:47;;;;;;;2.17;0.82;;;7.40;99.90;;;;;;4971737;28;20224;-69
2023/11/06 06:13:14;;;;;;;1.25;0.90;;;7.40;99.90;;;;;;4972045;28;20201;-68
2023/11/06 06:15:42;;;;;;;1.40;1.08;;;7.40;99.90;;;;;;4971709;28;20901;-68
2023/11/06 06:18:09;;;;;;;1.13;0.77;;;7.40;99.90;;;;;;4971635;28;20218;-68
2023/11/06 06:20:35;;;;;;;1.65;1.27;;;7.40;99.90;;;;;;4971834;28;20230;-68
2023/11/06 06:23:03;;;;;;;0.98;0.80;;;7.40;99.90;;;;;;4971608;28;20235;-68
2023/11/06 06:25:29;;;;;;;1.55;0.95;;;7.40;99.90;;;;;;4971640;28;20214;-68
2023/11/06 06:27:56;;;;;;;0.95;0.80;;;7.40;99.90;;;;;;4971179;28;20537;-67
2023/11/06 06:30:25;;;;;;;0.80;0.70;;;7.40;99.90;;;;;;4971864;28;20211;-68
2023/11/06 06:32:53;;;;;;;0.90;0.80;;;7.40;99.90;;;;;;4971471;28;20209;-68
2023/11/06 06:35:19;;;;;;;1.13;0.70;;;7.30;99.90;;;;;;4971696;28;20579;-68
2023/11/06 06:37:46;;;;;;;1.10;1.00;;;7.30;99.90;;;;;;4971447;28;20212;-69
2023/11/06 06:40:13;;;;;;;0.70;0.60;;;7.30;99.90;;;;;;4971519;28;20207;-68
2023/11/06 06:42:40;;;;;;;2.65;1.00;;;7.30;99.90;;;;;;4967152;28;20230;-68
2023/11/06 06:45:08;;;;;;;1.10;1.00;;;7.30;99.90;;;;;;4971604;28;20207;-68
2023/11/06 06:47:35;;;;;;;1.15;0.75;;;7.20;99.90;;;;;;4971059;28;20208;-68
2023/11/06 06:50:04;;;;;;;0.82;0.73;;;7.20;99.90;;;;;;4971647;28;20206;-68
2023/11/06 06:52:30;;;;;;;0.93;0.77;;;7.20;99.90;;;;;;4970663;28;20235;-68
2023/11/06 06:54:57;;;;;;;0.90;0.75;;;7.20;99.90;;;;;;4971461;28;20314;-68
2023/11/06 06:57:24;;;;;;;1.08;0.98;;;7.20;99.90;;;;;;4971207;28;20580;-68
2023/11/06 06:59:50;;;;;;;1.00;0.70;;;7.20;99.90;;;;;;4971461;28;20211;-68
2023/11/06 07:02:17;;;;;;;1.60;0.70;;;7.10;99.90;;;;;;4973878;28;20745;-68
2023/11/06 07:04:44;;;;;;;1.00;0.70;;;7.10;99.90;;;;;;4974628;28;20222;-68
2023/11/06 07:07:12;;;;;;;0.77;0.68;;;7.00;99.90;;;;;;4974539;28;20214;-68
2023/11/06 07:09:39;;;;;;;0.70;0.60;;;7.10;99.90;;;;;;4969973;28;20207;-68
2023/11/06 07:12:07;;;;;;;0.70;0.70;;;7.00;99.90;;;;;;4974891;28;20640;-68
2023/11/06 07:14:34;;;;;;;0.90;0.80;;;7.00;99.90;;;;;;4974958;28;20233;-68
2023/11/06 07:17:04;;;;;;;1.13;0.98;;;7.00;99.90;;;;;;4974378;28;20209;-68
2023/11/06 07:19:31;;;;;;;1.63;1.00;;;7.00;99.90;;;;;;4974833;28;20257;-68
2023/11/06 07:21:58;;;;;;;1.20;1.10;;;7.00;99.90;;;;;;4974508;28;20252;-68
2023/11/06 07:24:26;;;;;;;1.90;1.35;;;7.00;99.90;;;;;;4974965;28;20223;-68
2023/11/06 07:26:54;;;;;;;2.13;0.90;;;7.10;99.90;;;;;;4974094;28;20248;-67
2023/11/06 07:29:21;;;;;;;1.00;0.80;;;7.30;99.90;;;;;;4974678;28;20265;-68
2023/11/06 07:31:50;;;;;;;1.55;0.90;;;7.50;99.90;;;;;;4974975;28;20228;-67
2023/11/06 07:34:18;;;;;;;1.15;1.05;;;7.80;99.90;;;;;;4974414;28;20203;-68
2023/11/06 07:36:44;;;;;;;1.85;1.10;;;8.10;99.90;;;;;;4974311;28;20206;-67
2023/11/06 07:39:11;;;;;;;2.00;1.08;;;8.30;99.90;;;;;;4974280;28;20207;-67
2023/11/06 07:41:40;;;;;;;1.45;0.90;;;8.50;99.90;;;;;;4974500;28;20229;-68
2023/11/06 07:44:06;;;;;;;0.98;0.80;;;8.60;99.90;;;;;;4974317;28;20227;-68
2023/11/06 07:46:33;;;;;;;1.80;1.10;;;8.80;99.90;;;;;;4974265;28;20690;-67
2023/11/06 07:49:00;;;;;;;1.30;1.08;;;8.90;99.90;;;;;;4974234;28;20531;-68
2023/11/06 07:51:27;;;;;;;1.00;0.90;;;9.00;99.90;;;;;;4974313;28;20231;-67
2023/11/06 07:53:54;;;;;;;2.35;1.20;;;9.10;99.90;;;;;;4974197;28;20200;-68
2023/11/06 07:56:20;;;;;;;1.83;1.10;;;9.10;99.90;;;;;;4973995;28;20583;-68
2023/11/06 07:58:49;;;;;;;1.33;1.00;;;9.20;99.90;;;;;;4973766;28;20665;-68
2023/11/06 08:01:17;;;;;;;1.92;1.08;;;9.20;99.90;;;;;;4973907;28;20232;-68
2023/11/06 08:03:44;;;;;;;2.90;1.20;;;9.50;99.90;;;;;;4973916;28;20227;-68
2023/11/06 08:06:11;;;;;;;2.22;1.10;;;9.80;99.90;;;;;;4973832;28;20235;-68
2023/11/06 08:08:38;;;;;;;1.33;0.90;;;10.30;99.90;;;;;;4973690;28;20208;-68
2023/11/06 08:11:06;;;;;;;1.40;0.95;;;10.50;99.90;;;;;;4973744;28;20224;-68
2023/11/06 08:13:33;;;;;;;1.25;1.00;;;10.90;99.90;;;;;;4973489;28;20207;-68
2023/11/06 08:16:03;;;;;;;4.63;1.05;;;11.30;99.90;;;;;;4973534;28;20208;-68
2023/11/06 08:18:30;;;;;;;1.38;0.90;;;11.70;99.90;;;;;;4973593;28;20209;-68
2023/11/06 08:20:57;;;;;;;1.00;0.90;;;12.20;99.90;;;;;;4973727;28;20231;-68
2023/11/06 08:23:24;;;;;;;1.70;1.10;;;12.50;99.90;;;;;;4971889;28;20627;-68
2023/11/06 08:25:50;;;;;;;2.85;1.55;;;13.10;99.90;;;;;;4973378;28;20298;-68
2023/11/06 08:28:17;;;;;;;1.50;1.00;;;13.50;99.90;;;;;;4973297;28;20229;-68
2023/11/06 08:30:44;;;;;;;1.00;0.90;;;13.30;99.90;;;;;;4973336;28;20229;-68
2023/11/06 08:33:12;;;;;;;2.65;1.00;;;13.50;99.90;;;;;;4973533;28;20219;-68
2023/11/06 08:35:39;;;;;;;1.30;1.02;;;14.10;99.90;;;;;;4967285;28;20208;-68
2023/11/06 08:38:06;;;;;;;1.23;0.90;;;14.50;99.90;;;;;;4972999;28;20207;-68
2023/11/06 08:40:33;;;;;;;1.33;1.02;;;14.60;99.90;;;;;;4973273;28;20631;-68
2023/11/06 08:43:00;;;;;;;0.90;0.70;;;14.70;99.90;;;;;;4973552;28;20303;-68
2023/11/06 08:45:27;;;;;;;1.03;0.90;;;14.70;99.90;;;;;;4973147;28;20466;-68
2023/11/06 08:47:53;;;;;;;1.07;0.77;;;14.70;99.90;;;;;;4972836;28;20467;-68
2023/11/06 08:50:21;;;;;;;2.20;0.90;;;14.00;99.90;;;;;;4973090;28;20852;-68
2023/11/06 08:52:48;;;;;;;1.63;1.20;;;13.30;99.90;;;;;;4973088;28;20592;-68
2023/11/06 08:55:15;;;;;;;2.65;1.13;;;12.80;99.90;;;;;;4972960;28;20882;-68
2023/11/06 08:57:42;;;;;;;1.40;1.08;;;12.30;99.90;;;;;;4972540;28;20229;-68
2023/11/06 09:00:09;;;;;;;1.50;0.80;;;11.90;99.90;;;;;;4973012;28;20583;-68
2023/11/06 09:02:36;;;;;;;1.52;1.10;;;11.70;99.90;;;;;;4972793;28;20225;-68
2023/11/06 09:05:05;;;;;;;1.20;0.98;;;11.60;99.90;;;;;;4972668;28;20247;-68
2023/11/06 09:07:33;;;;;;;1.67;1.33;;;11.90;99.90;;;;;;4972370;28;20304;-68
2023/11/06 09:10:00;;;;;;;1.08;0.80;;;12.30;99.90;;;;;;4973094;28;20595;-68
2023/11/06 09:12:27;;;;;;;1.25;1.05;;;12.50;99.90;;;;;;4972585;28;20229;-68
2023/11/06 09:14:53;;;;;;;2.63;1.23;;;13.00;99.90;;;;;;4972613;28;20205;-68
2023/11/06 09:17:21;;;;;;;2.17;0.90;;;13.30;99.90;;;;;;4971992;28;20222;-68
2023/11/06 09:19:48;;;;;;;3.58;1.00;;;13.20;99.90;;;;;;4972669;28;20632;-68
2023/11/06 09:22:15;;;;;;;1.17;0.80;;;13.00;99.90;;;;;;4972462;28;20229;-68
2023/11/06 09:24:43;;;;;;;1.20;0.88;;;12.90;99.90;;;;;;4971669;28;20249;-68
2023/11/06 09:27:10;;;;;;;6.05;1.33;;;12.60;99.90;;;;;;4972056;28;20214;-68
2023/11/06 09:29:36;;;;;;;1.10;1.00;;;12.50;99.90;;;;;;4972342;28;20218;-69
2023/11/06 09:32:03;;;;;;;3.38;1.10;;;12.40;99.90;;;;;;4972486;28;20237;-68
2023/11/06 09:34:30;;;;;;;1.95;1.00;;;12.40;99.90;;;;;;4972542;28;20208;-68
2023/11/06 09:36:57;;;;;;;1.35;1.10;;;12.40;99.90;;;;;;4971944;28;20711;-68
2023/11/06 09:39:24;;;;;;;1.73;0.93;;;12.60;99.90;;;;;;4972157;28;20216;-68
2023/11/06 09:41:55;;;;;;;1.27;0.82;;;12.70;99.90;;;;;;4972001;28;20496;-68
2023/11/06 09:44:22;;;;;;;1.88;1.08;;;13.00;99.90;;;;;;4971928;28;20229;-68
2023/11/06 09:46:50;;;;;;;1.20;0.90;;;13.40;99.90;;;;;;4971981;28;20210;-68
2023/11/06 09:49:26;;;;;;;1.00;0.80;;;13.80;99.90;;;;;;4972097;28;20459;-68
2023/11/06 09:51:55;;;;;;;1.63;1.17;;;14.10;99.90;;;;;;4972000;28;20493;-68
2023/11/06 09:54:24;;;;;;;1.87;1.07;;;14.40;99.90;;;;;;4972092;28;20461;-68
2023/11/06 09:56:53;;;;;;;1.30;0.90;;;14.60;99.90;;;;;;4971793;28;20830;-68
2023/11/06 09:59:23;;;;;;;1.67;1.13;;;14.90;99.90;;;;;;4971964;28;20845;-68
2023/11/06 10:01:53;;;;;;;1.30;1.20;;;15.40;99.90;;;;;;4971810;28;20992;-68
2023/11/06 10:04:20;;;;;;;1.30;0.97;;;15.70;99.90;;;;;;4971674;28;20490;-68
2023/11/06 10:06:49;;;;;;;1.53;1.17;;;15.60;99.90;;;;;;4971751;28;21018;-68
2023/11/06 10:09:23;;;;;;;1.10;1.00;;;15.10;99.90;;;;;;4971494;28;20467;-68
2023/11/06 10:11:51;;;;;;;0.80;0.70;;;14.40;99.90;;;;;;4972044;28;20483;-68
2023/11/06 10:14:21;;;;;;;1.40;0.90;;;14.50;99.90;;;;;;4971964;28;20459;-68
2023/11/06 10:17:03;;;;;;;2.30;0.80;;;14.80;99.90;;;;;;4971688;28;20464;-68
2023/11/06 10:19:31;;;;;;;0.80;0.70;;;14.80;99.90;;;;;;4971566;28;20467;-66
2023/11/06 10:22:11;;;;;;;0.83;0.70;;;14.90;99.90;;;;;;4971862;28;20498;-66
2023/11/06 10:24:49;;;;;;;1.07;0.93;;;15.10;99.90;;;;;;4971156;28;20491;-68
2023/11/06 10:27:23;;;;;;;2.30;1.00;;;15.40;99.90;;;;;;4970442;28;20471;-69
2023/11/06 10:29:59;;;;;;;1.50;1.10;;;15.70;99.90;;;;;;4971440;28;20467;-69
2023/11/06 10:32:28;;;;;;;1.00;0.87;;;16.10;99.90;;;;;;4970770;28;20566;-66
2023/11/06 10:34:59;;;;;;;1.00;0.80;;;15.60;99.90;;;;;;4971888;28;20468;-68
2023/11/06 10:37:28;;;;;;;1.30;0.90;;;14.90;99.90;;;;;;4974948;28;20498;-66
2023/11/06 10:39:56;;;;;;;2.07;1.00;;;14.60;99.90;;;;;;4975749;28;21187;-66
2023/11/06 10:42:25;;;;;;;1.20;0.90;;;14.20;99.90;;;;;;4974696;28;20606;-68
2023/11/06 10:44:57;;;;;;;1.52;1.05;;;13.60;99.90;;;;;;4975058;28;20490;-68
2023/11/06 10:47:34;;;;;;;1.00;0.80;;;13.30;99.90;;;;;;4975048;28;20218;-66
2023/11/06 10:50:07;;;;;;;2.60;1.00;;;13.30;99.90;;;;;;4975991;28;20289;-67
2023/11/06 10:52:35;;;;;;;1.37;1.00;;;13.30;99.90;;;;;;4975157;28;20521;-67
2023/11/06 10:55:03;;;;;;;1.03;0.83;;;13.20;99.90;;;;;;4975693;28;20466;-66
2023/11/06 10:57:34;;;;;;;1.50;1.10;;;12.90;99.90;;;;;;4974542;28;20962;-67
2023/11/06 11:00:04;;;;;;;1.37;1.03;;;13.00;99.90;;;;;;4975916;28;20214;-66
2023/11/06 11:02:54;;;;;;;1.00;0.80;;;12.90;99.90;;;;;;4975364;28;20482;-66
2023/11/06 11:05:24;;;;;;;1.65;1.02;;;12.80;99.90;;;;;;4971319;28;20482;-66
2023/11/06 11:07:53;;;;;;;1.48;0.85;;;12.60;99.90;;;;;;4975036;28;20203;-67
2023/11/06 11:10:26;;;;;;;2.35;1.00;;;12.30;99.90;;;;;;4974726;28;20290;-67
2023/11/06 11:12:55;;;;;;;0.95;0.77;;;12.30;99.90;;;;;;4975112;28;20738;-67
2023/11/06 11:15:26;;;;;;;1.20;1.10;;;12.20;99.90;;;;;;4975074;28;20585;-67
2023/11/06 11:17:59;;;;;;;1.30;0.77;;;12.10;99.90;;;;;;4974874;28;20293;-68
2023/11/06 11:20:26;;;;;;;1.10;0.80;;;12.10;99.90;;;;;;4974949;28;20282;-67
2023/11/06 11:23:10;;;;;;;3.28;1.20;;;12.10;99.90;;;;;;4974657;28;20683;-66
2023/11/06 11:25:57;;;;;;;0.82;0.73;;;12.10;99.90;;;;;;4974269;28;20254;-66
2023/11/06 11:28:25;;;;;;;1.85;1.10;;;12.10;99.90;;;;;;4974738;28;20242;-67
2023/11/06 11:30:53;;;;;;;1.17;0.77;;;12.00;99.90;;;;;;4974914;28;20233;-67
2023/11/06 11:33:55;;;;;;;1.10;1.00;;;12.00;99.90;;;;;;4975243;28;20691;-66
2023/11/06 11:36:30;;;;;;;1.00;0.80;;;12.00;99.90;;;;;;4974645;28;20314;-70
2023/11/06 11:38:58;;;;;;;1.25;0.90;;;11.80;99.90;;;;;;4974698;28;20206;-68
2023/11/06 11:41:27;;;;;;;2.42;0.90;;;11.80;99.90;;;;;;4974796;28;20241;-68
2023/11/06 11:44:05;;;;;;;1.80;0.80;;;11.70;99.90;;;;;;4974889;28;20205;-68
2023/11/06 11:46:56;;;;;;;0.80;0.70;;;11.70;99.90;;;;;;4973293;28;20214;-67
2023/11/06 11:49:47;;;;;;;0.90;0.70;;;11.70;99.90;;;;;;4974771;28;20227;-67
2023/11/06 11:52:16;;;;;;;1.75;1.42;;;11.70;99.90;;;;;;4974719;28;20253;-68
2023/11/06 11:54:45;;;;;;;1.63;0.80;;;11.80;99.90;;;;;;4974217;28;20205;-68
2023/11/06 11:57:12;;;;;;;1.00;0.77;;;12.00;99.90;;;;;;4974627;28;20616;-68
2023/11/06 11:59:46;;;;;;;1.00;0.80;;;12.10;99.90;;;;;;4974386;28;20205;-68
2023/11/06 12:02:23;;;;;;;1.00;0.70;;;12.10;99.90;;;;;;4974995;28;20656;-67
2023/11/06 12:04:52;;;;;;;1.33;0.80;;;12.10;99.90;;;;;;4974545;28;20216;-67
2023/11/06 12:07:18;;;;;;;1.10;0.88;;;12.10;99.90;;;;;;4973938;28;20210;-67
2023/11/06 12:09:51;;;;;;;0.80;0.60;;;12.20;99.90;;;;;;4973859;28;20658;-67
2023/11/06 12:12:22;;;;;;;0.90;0.80;;;12.30;99.90;;;;;;4974036;28;20228;-67
2023/11/06 12:14:49;;;;;;;1.13;0.90;;;12.40;99.90;;;;;;4967078;28;20288;-67
2023/11/06 12:17:29;;;;;;;0.80;0.65;;;12.40;99.90;;;;;;4972991;28;20595;-67
2023/11/06 12:20:03;;;;;;;2.22;0.85;;;12.40;99.90;;;;;;4974198;28;20292;-67
2023/11/06 12:22:31;;;;;;;1.35;0.80;;;12.50;99.90;;;;;;4974051;28;20237;-67
2023/11/06 12:25:00;;;;;;;1.00;0.73;;;12.70;99.90;;;;;;4974253;28;20220;-67
2023/11/06 12:27:34;;;;;;;0.80;0.73;;;12.70;99.90;;;;;;4973721;28;20299;-67
2023/11/06 12:30:06;;;;;;;2.45;0.90;;;12.80;99.90;;;;;;4974498;28;20666;-67
2023/11/06 12:32:34;;;;;;;0.80;0.60;;;12.70;99.90;;;;;;4973628;28;20236;-67
2023/11/06 12:35:11;;;;;;;0.80;0.70;;;12.50;99.90;;;;;;4973891;28;20221;-67
2023/11/06 12:37:48;;;;;;;1.70;0.80;;;12.40;99.90;;;;;;4973461;28;20208;-67
2023/11/06 12:40:16;;;;;;;1.10;0.90;;;12.30;99.90;;;;;;4973898;28;20650;-67
2023/11/06 12:42:44;;;;;;;1.35;0.70;;;12.20;99.90;;;;;;4973894;28;20235;-67
2023/11/06 12:45:34;;;;;;;0.90;0.80;;;12.00;99.90;;;;;;4973531;28;20754;-67
2023/11/06 12:48:19;;;;;;;1.65;0.90;;;12.00;99.90;;;;;;4973500;28;20212;-67
2023/11/06 12:50:56;;;;;;;0.80;0.70;;;11.90;99.90;;;;;;4972363;28;20241;-67
2023/11/06 12:53:24;;;;;;;0.80;0.70;;;11.90;99.90;;;;;;4973106;28;20208;-67
2023/11/06 12:55:51;;;;;;;0.80;0.68;;;11.90;99.90;;;;;;4972699;28;20279;-67
2023/11/06 12:58:20;;;;;;;1.20;0.95;;;11.90;99.90;;;;;;4972766;28;20211;-66
2023/11/06 13:00:53;;;;;;;1.58;1.10;;;11.90;99.90;;;;;;4972407;28;20594;-67
2023/11/06 13:03:19;;;;;;;0.95;0.68;;;11.90;99.90;;;;;;4973126;28;20269;-67
2023/11/06 13:05:46;;;;;;;1.10;0.70;;;11.80;99.90;;;;;;4972401;28;20228;-67
2023/11/06 13:08:16;;;;;;;0.80;0.70;;;11.80;99.90;;;;;;4972801;28;20599;-67
2023/11/06 13:10:43;;;;;;;1.10;0.70;;;11.80;99.90;;;;;;4971300;28;20603;-67
2023/11/06 13:13:09;;;;;;;0.95;0.80;;;11.80;99.90;;;;;;4972768;28;20208;-67
2023/11/06 13:15:36;;;;;;;0.70;0.60;;;11.70;99.90;;;;;;4972237;28;20201;-67
2023/11/06 13:18:03;;;;;;;0.80;0.63;;;11.70;99.90;;;;;;4972443;28;20208;-68
2023/11/06 13:20:32;;;;;;;1.00;0.70;;;11.60;99.90;;;;;;4972509;28;20308;-69
2023/11/06 13:22:59;;;;;;;0.80;0.60;;;11.60;99.90;;;;;;4972518;28;20200;-69
2023/11/06 13:25:29;;;;;;;4.20;0.80;;;11.60;99.90;;;;;;4972054;28;20727;-66
2023/11/06 13:27:57;;;;;;;0.90;0.70;;;11.60;99.90;;;;;;4966342;28;20688;-67
2023/11/06 13:30:26;;;;;;;0.80;0.60;;;11.60;99.90;;;;;;4972535;28;20287;-69
2023/11/06 13:32:52;;;;;;;1.15;0.70;;;11.60;99.90;;;;;;4972198;28;20200;-69
2023/11/06 13:35:19;;;;;;;1.00;0.80;;;11.60;99.90;;;;;;4972309;28;20209;-68
2023/11/06 13:37:46;;;;;;;0.90;0.80;;;11.70;99.90;;;;;;4971230;28;20291;-68
2023/11/06 13:40:22;;;;;;;1.52;0.73;;;11.70;99.90;;;;;;4972447;28;20204;-68
2023/11/06 13:42:52;;;;;;;0.90;0.77;;;11.70;99.90;;;;;;4971506;28;20645;-68
2023/11/06 13:45:21;;;;;;;0.90;0.70;;;11.70;99.90;;;;;;4972569;28;20637;-67
2023/11/06 13:47:52;;;;;;;1.23;0.73;;;11.70;99.90;;;;;;4971659;28;20658;-67
2023/11/06 13:50:28;;;;;;;1.08;0.80;;;11.70;99.90;;;;;;4972066;28;20260;-69
2023/11/06 13:53:01;;;;;;;0.80;0.70;;;11.70;99.90;;;;;;4971969;28;20299;-66
2023/11/06 13:55:32;;;;;;;1.48;1.00;;;11.70;99.90;;;;;;4972020;28;20206;-66
2023/11/06 13:58:00;;;;;;;1.00;0.85;;;11.70;99.90;;;;;;4966611;28;20295;-66
2023/11/06 14:00:32;;;;;;;0.90;0.80;;;11.60;99.90;;;;;;4972271;28;20215;-66
2023/11/06 14:02:59;;;;;;;0.80;0.70;;;11.60;99.90;;;;;;4966974;28;20207;-67
2023/11/06 14:05:29;;;;;;;0.90;0.77;;;11.60;99.90;;;;;;4972194;28;20236;-66
2023/11/06 14:07:58;;;;;;;0.90;0.80;;;11.60;99.90;;;;;;4971459;28;20237;-66
2023/11/06 14:10:30;;;;;;;1.17;0.70;;;11.60;99.90;;;;;;4975028;28;20203;-67
2023/11/06 14:12:57;;;;;;;1.00;0.77;;;11.60;99.90;;;;;;4978443;28;20272;-66
2023/11/06 14:15:25;;;;;;;1.25;0.88;;;11.60;99.90;;;;;;4978578;28;20204;-67
2023/11/06 14:17:54;;;;;;;1.15;0.70;;;11.60;99.90;;;;;;4977878;28;20212;-67
2023/11/06 14:20:21;;;;;;;1.00;0.70;;;11.60;99.90;;;;;;4978456;28;20209;-67
2023/11/06 14:22:48;;;;;;;1.05;0.80;;;11.60;99.90;;;;;;4978069;28;20208;-66
2023/11/06 14:25:15;;;;;;;2.20;0.90;;;11.60;99.90;;;;;;4978318;28;20227;-67
2023/11/06 14:27:42;;;;;;;1.48;0.90;;;11.70;99.90;;;;;;4977303;28;20212;-68
2023/11/06 14:30:14;;;;;;;0.90;0.80;;;11.80;99.90;;;;;;4978208;28;20208;-69
2023/11/06 14:32:42;;;;;;;0.90;0.70;;;11.90;99.90;;;;;;4975401;28;20208;-68
2023/11/06 14:35:10;;;;;;;1.15;1.00;;;11.90;99.90;;;;;;4977933;28;20585;-68
2023/11/06 14:37:38;;;;;;;0.77;0.65;;;11.90;99.90;;;;;;4977364;28;20240;-68
2023/11/06 14:40:13;;;;;;;1.00;0.70;;;11.90;99.90;;;;;;4978085;28;20212;-67
2023/11/06 14:42:40;;;;;;;0.90;0.80;;;11.80;99.90;;;;;;4975296;28;20213;-68
2023/11/06 14:45:11;;;;;;;0.85;0.75;;;11.90;99.90;;;;;;4978147;28;20227;-67
2023/11/06 14:47:40;;;;;;;0.80;0.75;;;11.90;99.90;;;;;;4977504;28;20581;-68
2023/11/06 14:50:11;;;;;;;1.00;0.80;;;11.90;99.90;;;;;;4978242;28;20680;-68
2023/11/06 14:52:39;;;;;;;1.02;0.70;;;11.90;99.90;;;;;;4977816;28;20229;-69
2023/11/06 14:55:11;;;;;;;2.35;1.00;;;11.90;99.90;;;;;;4978082;28;20213;-66
2023/11/06 14:57:40;;;;;;;1.17;0.88;;;11.90;99.90;;;;;;4977447;28;20214;-65
2023/11/06 15:00:13;;;;;;;1.00;0.73;;;11.90;99.90;;;;;;4978149;28;20563;-66
2023/11/06 15:02:41;;;;;;;0.90;0.80;;;11.90;99.90;;;;;;4974919;28;20228;-66
2023/11/06 15:05:11;;;;;;;0.90;0.80;;;11.80;99.90;;;;;;4977866;28;20210;-66
2023/11/06 15:07:41;;;;;;;1.08;0.90;;;11.80;99.90;;;;;;4977294;28;20213;-66
2023/11/06 15:10:10;;;;;;;0.90;0.70;;;11.80;99.90;;;;;;4978060;28;20844;-66
2023/11/06 15:12:38;;;;;;;0.80;0.70;;;11.80;99.90;;;;;;4977912;28;20234;-67
2023/11/06 15:15:09;;;;;;;0.80;0.70;;;11.70;99.90;;;;;;4973245;28;20289;-66
2023/11/06 15:17:35;;;;;;;0.80;0.70;;;11.70;99.90;;;;;;4977488;28;20542;-66
2023/11/06 15:20:04;;;;;;;0.90;0.75;;;11.70;99.90;;;;;;4977654;28;20222;-66
2023/11/06 15:22:33;;;;;;;1.88;0.82;;;11.70;99.90;;;;;;4974440;28;20670;-66
2023/11/06 15:25:01;;;;;;;0.77;0.68;;;11.60;99.90;;;;;;4974338;28;20205;-67
2023/11/06 15:27:30;;;;;;;2.25;0.80;;;11.60;99.90;;;;;;4974008;28;20213;-65
2023/11/06 15:29:57;;;;;;;1.23;0.70;;;11.60;99.90;;;;;;4974463;28;20232;-66
2023/11/06 15:32:24;;;;;;;1.17;0.88;;;11.60;99.90;;;;;;4974635;28;20252;-66
2023/11/06 15:34:52;;;;;;;9.55;1.60;;;11.70;99.90;;;;;;4974336;28;20269;-66
2023/11/06 15:37:19;;;;;;;1.85;0.90;;;11.80;99.90;;;;;;4974083;28;20636;-67
2023/11/06 15:39:48;;;;;;;1.35;0.80;;;11.70;99.90;;;;;;4974140;28;20240;-65
2023/11/06 15:42:15;;;;;;;0.80;0.70;;;11.60;99.90;;;;;;4974631;28;20258;-66
2023/11/06 15:44:42;;;;;;;5.45;0.93;;;11.40;99.90;;;;;;4974787;28;20212;-67
2023/11/06 15:47:09;;;;;;;0.93;0.80;;;11.40;99.90;;;;;;4974012;28;20603;-67
2023/11/06 15:49:35;;;;;;;0.90;0.80;;;11.30;99.90;;;;;;4974573;28;20210;-67
2023/11/06 15:52:04;;;;;;;0.90;0.80;;;11.20;99.90;;;;;;4973774;28;20228;-66
2023/11/06 15:54:32;;;;;;;0.90;0.80;;;11.20;99.90;;;;;;4974640;28;20206;-67
2023/11/06 15:57:00;;;;;;;1.63;1.10;;;11.10;99.90;;;;;;4973794;28;20210;-67
2023/11/06 15:59:29;;;;;;;1.52;1.00;;;11.10;99.90;;;;;;4974460;28;20215;-66
2023/11/06 16:01:58;;;;;;;1.13;1.00;;;11.10;99.90;;;;;;4973944;28;20284;-66
2023/11/06 16:04:26;;;;;;;1.33;1.08;;;11.00;99.90;;;;;;4973799;28;20563;-66
2023/11/06 16:06:52;;;;;;;1.30;1.10;;;11.00;99.90;;;;;;4973284;28;20232;-67
2023/11/06 16:09:19;;;;;;;1.02;0.90;;;10.90;99.90;;;;;;4973809;28;20200;-66
2023/11/06 16:11:46;;;;;;;1.20;1.10;;;10.90;99.90;;;;;;4973780;28;20275;-66
2023/11/06 16:14:14;;;;;;;1.38;0.80;;;10.80;99.90;;;;;;4974099;28;20215;-67
2023/11/06 16:16:41;;;;;;;1.75;0.80;;;10.70;99.90;;;;;;4969479;28;20196;-65
2023/11/06 16:19:08;;;;;;;0.80;0.80;;;10.70;99.90;;;;;;4973154;28;20679;-64
2023/11/06 16:21:36;;;;;;;0.90;0.80;;;10.70;99.90;;;;;;4973560;28;20261;-67
2023/11/06 16:24:06;;;;;;;1.13;0.88;;;10.60;99.90;;;;;;4973592;28;20215;-65
2023/11/06 16:26:32;;;;;;;1.13;0.88;;;10.60;99.90;;;;;;4973401;28;20243;-65
2023/11/06 16:29:03;;;;;;;1.45;0.90;;;10.60;99.90;;;;;;4972794;28;20215;-65
2023/11/06 16:31:39;;;;;;;1.48;1.00;;;10.60;99.90;;;;;;4973504;28;20792;-65
2023/11/06 16:34:07;;;;;;;1.00;0.70;;;10.50;99.90;;;;;;4970278;28;20209;-65
2023/11/06 16:36:38;;;;;;;0.90;0.80;;;10.50;99.90;;;;;;4974025;28;20292;-65
2023/11/06 16:39:10;;;;;;;1.50;1.20;;;10.50;99.90;;;;;;4973947;28;20205;-66
2023/11/06 16:41:38;;;;;;;0.90;0.80;;;10.40;99.90;;;;;;4974121;28;20311;-65
2023/11/06 16:44:07;;;;;;;2.75;1.52;;;10.40;99.90;;;;;;4974211;28;20605;-65
2023/11/06 16:46:36;;;;;;;1.25;1.10;;;10.30;99.90;;;;;;4973932;28;20224;-66
2023/11/06 16:49:03;;;;;;;1.20;1.00;;;10.30;99.90;;;;;;4973653;28;20208;-66
2023/11/06 16:51:30;;;;;;;1.17;0.90;;;10.20;99.90;;;;;;4973386;28;20600;-66
2023/11/06 16:53:58;;;;;;;0.80;0.70;;;10.20;99.90;;;;;;4972881;28;20208;-66
2023/11/06 16:56:25;;;;;;;0.80;0.80;;;10.10;99.90;;;;;;4973054;28;20204;-65
2023/11/06 16:58:52;;;;;;;1.48;0.90;;;10.10;99.90;;;;;;4973219;28;20207;-66
2023/11/06 17:01:20;;;;;;;1.02;0.82;;;10.10;99.90;;;;;;4973199;28;20315;-66
2023/11/06 17:03:48;;;;;;;2.75;0.90;;;10.10;99.90;;;;;;4973083;28;20235;-66
2023/11/06 17:06:17;;;;;;;2.13;0.80;;;10.10;99.90;;;;;;4972297;28;20306;-66
2023/11/06 17:08:45;;;;;;;0.98;0.80;;;10.10;99.90;;;;;;4972826;28;20208;-66
2023/11/06 17:11:14;;;;;;;4.20;1.20;;;10.10;99.90;;;;;;4972607;28;20640;-66
2023/11/06 17:13:41;;;;;;;1.13;1.02;;;10.00;99.90;;;;;;4968331;28;20204;-66
2023/11/06 17:16:08;;;;;;;0.90;0.70;;;9.90;99.90;;;;;;4972090;28;20211;-68
2023/11/06 17:18:35;;;;;;;1.98;0.90;;;9.90;99.90;;;;;;4972232;28;20586;-68
2023/11/06 17:21:08;;;;;;;1.10;0.80;;;9.90;99.90;;;;;;4972123;28;20227;-68